Time;durP1;ratioP1;P1;durP2;ratioP2;P2;SDS_P1;SDS_P2;PMS_P1;PMS_P2;Temp;Humidity;BMP_temperature;BMP_pressure;BME280_temperature;BME280_humidity;BME280_pressure;Samples;Min_cycle;Max_cycle;Signal;HPM_P1;HPM_P2
2023/01/28 00:00:08;;;;;;;6.88;3.95;;;2.50;99.90;;;;;;4167436;28;20107;-82
2023/01/28 00:02:11;;;;;;;6.10;3.72;;;2.50;99.90;;;;;;4167701;28;20504;-82
2023/01/28 00:04:14;;;;;;;7.40;4.13;;;3.70;99.90;;;;;;4167370;28;20425;-81
2023/01/28 00:06:15;;;;;;;7.38;4.10;;;2.50;99.90;;;;;;4167694;28;20049;-81
2023/01/28 00:08:16;;;;;;;6.28;3.38;;;2.60;99.90;;;;;;4167729;28;20532;-82
2023/01/28 00:10:17;;;;;;;6.68;4.13;;;3.90;99.90;;;;;;4167150;28;20136;-82
2023/01/28 00:12:18;;;;;;;5.22;3.58;;;2.50;99.90;;;;;;4166919;28;20504;-82
2023/01/28 00:14:18;;;;;;;5.63;3.70;;;2.50;99.90;;;;;;4167463;28;20044;-82
2023/01/28 00:16:23;;;;;;;7.53;4.07;;;2.50;99.90;;;;;;4167416;28;20050;-82
2023/01/28 00:18:25;;;;;;;5.70;3.03;;;2.50;99.90;;;;;;4167409;28;20045;-82
2023/01/28 00:20:25;;;;;;;4.50;2.38;;;2.50;99.90;;;;;;4167197;28;20406;-82
2023/01/28 00:22:27;;;;;;;6.57;2.50;;;2.50;99.90;;;;;;4167515;28;20053;-82
2023/01/28 00:24:29;;;;;;;3.40;2.30;;;3.40;99.90;;;;;;4166794;28;20046;-82
2023/01/28 00:26:30;;;;;;;4.93;2.20;;;2.50;99.90;;;;;;4167083;28;20041;-82
2023/01/28 00:28:31;;;;;;;3.97;2.25;;;2.40;99.90;;;;;;4167099;28;20405;-82
2023/01/28 00:30:32;;;;;;;3.38;2.65;;;4.20;99.90;;;;;;4166919;28;20045;-82
2023/01/28 00:32:33;;;;;;;3.67;2.10;;;2.80;99.90;;;;;;4165477;28;20045;-82
2023/01/28 00:34:36;;;;;;;4.10;2.58;;;2.50;99.90;;;;;;4166584;28;20073;-82
2023/01/28 00:36:38;;;;;;;3.75;2.20;;;2.50;99.90;;;;;;4166822;28;20502;-82
2023/01/28 00:38:41;;;;;;;2.90;2.08;;;2.40;99.90;;;;;;4167105;28;20092;-82
2023/01/28 00:40:41;;;;;;;5.03;2.03;;;2.40;99.90;;;;;;4166868;28;20091;-82
2023/01/28 00:42:43;;;;;;;3.58;2.22;;;3.30;99.90;;;;;;4167171;28;20049;-82
2023/01/28 00:44:44;;;;;;;4.22;2.20;;;3.50;99.90;;;;;;4166874;28;20045;-82
2023/01/28 00:46:50;;;;;;;4.47;2.33;;;2.40;99.90;;;;;;4165630;28;20072;-82
2023/01/28 00:48:51;;;;;;;3.92;2.35;;;2.40;99.90;;;;;;4166898;28;20120;-82
2023/01/28 00:50:53;;;;;;;5.05;2.42;;;2.40;99.90;;;;;;4166920;28;20079;-82
2023/01/28 00:52:54;;;;;;;6.45;2.53;;;3.00;99.90;;;;;;4166962;28;20371;-82
2023/01/28 00:54:56;;;;;;;2.75;2.30;;;2.50;99.90;;;;;;4166694;28;20505;-82
2023/01/28 00:56:56;;;;;;;2.88;2.08;;;3.40;99.90;;;;;;4166761;28;20444;-82
2023/01/28 00:58:57;;;;;;;3.42;2.05;;;2.50;99.90;;;;;;4166872;28;20045;-82
2023/01/28 01:01:33;;;;;;;3.97;2.63;;;2.40;99.90;;;;;;4166618;28;20041;-82
2023/01/28 01:03:35;;;;;;;4.28;2.60;;;2.50;99.90;;;;;;4148022;28;20049;-81
2023/01/28 01:05:36;;;;;;;3.28;2.17;;;2.60;99.90;;;;;;4158565;28;20553;-81
2023/01/28 01:07:42;;;;;;;4.45;2.60;;;2.40;99.90;;;;;;4166874;28;20053;-81
2023/01/28 01:09:43;;;;;;;6.25;2.85;;;2.80;99.90;;;;;;4166211;28;20048;-81
2023/01/28 01:11:44;;;;;;;5.03;2.30;;;2.50;99.90;;;;;;4171058;28;20124;-81
2023/01/28 01:13:50;;;;;;;3.60;2.40;;;2.50;99.90;;;;;;4182922;28;20091;-81
2023/01/28 01:16:01;;;;;;;6.32;2.67;;;3.40;99.90;;;;;;4182869;28;20116;-81
2023/01/28 01:18:02;;;;;;;2.88;2.00;;;2.50;99.90;;;;;;4181136;28;20057;-81
2023/01/28 01:20:05;;;;;;;2.60;1.60;;;2.50;99.90;;;;;;4182076;28;20041;-82
2023/01/28 01:22:07;;;;;;;3.53;2.13;;;2.50;99.90;;;;;;4182670;28;20123;-81
2023/01/28 01:24:08;;;;;;;2.67;2.20;;;2.50;99.90;;;;;;4182878;28;20047;-81
2023/01/28 01:26:10;;;;;;;2.75;1.67;;;2.50;99.90;;;;;;4182662;28;20041;-81
2023/01/28 01:28:11;;;;;;;2.90;1.95;;;2.90;99.90;;;;;;4181333;28;20421;-81
2023/01/28 01:30:13;;;;;;;4.15;2.28;;;2.50;99.90;;;;;;4182289;28;20048;-82
2023/01/28 01:32:15;;;;;;;2.58;1.90;;;2.50;99.90;;;;;;4182303;28;20051;-82
2023/01/28 01:34:15;;;;;;;3.35;2.38;;;3.60;99.90;;;;;;4180959;28;20075;-82
2023/01/28 01:36:19;;;;;;;4.28;2.38;;;2.50;99.90;;;;;;4182266;28;20489;-81
2023/01/28 01:38:20;;;;;;;4.43;2.47;;;3.40;99.90;;;;;;4182535;28;20056;-81
2023/01/28 01:40:22;;;;;;;4.55;2.30;;;2.50;99.90;;;;;;4182244;28;20049;-82
2023/01/28 01:42:24;;;;;;;4.20;2.40;;;2.40;99.90;;;;;;4181033;28;20127;-82
2023/01/28 01:44:56;;;;;;;4.60;2.30;;;2.40;99.90;;;;;;4181241;28;20052;-82
2023/01/28 01:46:57;;;;;;;3.53;1.75;;;2.40;99.90;;;;;;4180609;28;20154;-81
2023/01/28 01:49:10;;;;;;;3.28;2.17;;;2.40;99.90;;;;;;4182258;28;20456;-81
2023/01/28 01:51:20;;;;;;;2.08;1.70;;;2.40;99.90;;;;;;4181051;28;20098;-81
2023/01/28 01:53:23;;;;;;;3.20;2.00;;;2.60;99.90;;;;;;4182547;28;20041;-81
2023/01/28 01:55:29;;;;;;;3.10;1.95;;;2.40;99.90;;;;;;4180829;28;20049;-81
2023/01/28 01:57:33;;;;;;;3.35;2.22;;;2.70;99.90;;;;;;4181044;28;20083;-81
2023/01/28 01:59:35;;;;;;;3.13;2.15;;;2.40;99.90;;;;;;4181366;28;20424;-81
2023/01/28 02:01:36;;;;;;;3.95;2.08;;;2.60;99.90;;;;;;4164422;28;20077;-81
2023/01/28 02:04:14;;;;;;;5.32;2.60;;;2.40;99.90;;;;;;4182014;28;20053;-81
2023/01/28 02:06:15;;;;;;;3.42;2.53;;;2.40;99.90;;;;;;4182540;28;20106;-81
2023/01/28 02:08:21;;;;;;;6.20;2.53;;;2.40;99.90;;;;;;4182497;28;20053;-81
2023/01/28 02:10:23;;;;;;;3.88;2.40;;;2.70;99.90;;;;;;4182778;28;20039;-81
2023/01/28 02:12:36;;;;;;;3.30;1.90;;;2.40;99.90;;;;;;4181799;28;20087;-82
2023/01/28 02:14:59;;;;;;;2.80;1.85;;;2.30;99.90;;;;;;4182328;28;20202;-82
2023/01/28 02:17:00;;;;;;;2.42;1.60;;;2.30;99.90;;;;;;4181523;28;20052;-80
2023/01/28 02:19:01;;;;;;;3.25;1.63;;;2.50;99.90;;;;;;4181437;28;20060;-81
2023/01/28 02:21:39;;;;;;;2.53;1.77;;;3.50;99.90;;;;;;4182484;28;20096;-81
2023/01/28 02:24:18;;;;;;;5.97;1.70;;;2.30;99.90;;;;;;4181722;28;20509;-81
2023/01/28 02:26:37;;;;;;;2.75;2.03;;;2.30;99.90;;;;;;4181552;28;20057;-82
2023/01/28 02:28:44;;;;;;;5.38;2.25;;;2.30;99.90;;;;;;4181590;28;20107;-81
2023/01/28 02:31:04;;;;;;;4.25;2.42;;;2.30;99.90;;;;;;4181640;28;20525;-81
2023/01/28 02:33:18;;;;;;;2.95;2.10;;;2.30;99.90;;;;;;4181508;28;20128;-81
2023/01/28 02:35:32;;;;;;;4.28;2.10;;;2.30;99.90;;;;;;4183017;28;20048;-81
2023/01/28 02:37:52;;;;;;;4.40;2.78;;;2.30;99.90;;;;;;4165093;28;20518;-81
2023/01/28 02:40:04;;;;;;;5.32;2.30;;;2.30;99.90;;;;;;4181137;28;20049;-81
2023/01/28 02:42:19;;;;;;;4.55;2.15;;;2.30;99.90;;;;;;4183607;28;20048;-81
2023/01/28 02:44:20;;;;;;;4.47;2.15;;;2.40;99.90;;;;;;4166790;28;20062;-81
2023/01/28 02:48:54;;;;;;;3.75;2.08;;;2.40;99.90;;;;;;4184718;28;20571;-81
2023/01/28 02:51:22;;;;;;;4.13;2.22;;;2.80;99.90;;;;;;4182685;28;20041;-81
2023/01/28 02:53:42;;;;;;;2.83;2.30;;;2.40;99.90;;;;;;4172005;28;20537;-81
2023/01/28 02:56:12;;;;;;;5.45;2.15;;;2.40;99.90;;;;;;4183348;28;20520;-81
2023/01/28 02:59:29;;;;;;;3.25;2.22;;;2.40;99.90;;;;;;4185987;28;20084;-81
2023/01/28 03:01:47;;;;;;;4.50;2.13;;;2.30;99.90;;;;;;4170446;28;20060;-82
2023/01/28 03:04:17;;;;;;;3.75;2.40;;;2.30;99.90;;;;;;4184464;28;20053;-81
2023/01/28 03:06:22;;;;;;;5.65;2.40;;;2.30;99.90;;;;;;4167578;28;20057;-81
2023/01/28 03:37:27;;;;;;;4.38;2.33;;;2.40;99.90;;;;;;4168515;28;20049;-81
2023/01/28 03:39:29;;;;;;;2.65;1.92;;;2.30;99.90;;;;;;4168716;28;20139;-81
2023/01/28 03:41:30;;;;;;;2.67;1.90;;;2.30;99.90;;;;;;4150431;28;20573;-81
2023/01/28 03:43:31;;;;;;;4.70;2.58;;;3.10;99.90;;;;;;4167188;28;20045;-81
2023/01/28 03:45:33;;;;;;;3.85;2.03;;;3.30;99.90;;;;;;4167883;28;20048;-81
2023/01/28 03:47:35;;;;;;;3.35;2.03;;;3.40;99.90;;;;;;4150718;28;20041;-81
2023/01/28 03:49:50;;;;;;;4.00;2.20;;;2.30;99.90;;;;;;4184072;28;20530;-81
2023/01/28 03:51:51;;;;;;;3.00;1.80;;;2.30;99.90;;;;;;4166730;28;20124;-82
2023/01/28 03:53:53;;;;;;;2.30;1.88;;;2.30;99.90;;;;;;4166881;28;20121;-82
2023/01/28 03:55:55;;;;;;;5.85;2.03;;;2.50;99.90;;;;;;4166539;28;20592;-81
2023/01/28 03:57:56;;;;;;;3.15;2.05;;;2.30;99.90;;;;;;4150089;28;20050;-82
2023/01/28 03:59:57;;;;;;;3.60;2.78;;;2.30;99.90;;;;;;4167808;28;20045;-82
2023/01/28 04:01:59;;;;;;;3.65;2.05;;;3.60;99.90;;;;;;4167167;28;20037;-81
2023/01/28 04:04:00;;;;;;;4.60;2.85;;;3.00;99.90;;;;;;4167921;28;20052;-81
2023/01/28 04:06:04;;;;;;;2.78;1.70;;;2.30;99.90;;;;;;4167757;28;20578;-81
2023/01/28 04:08:06;;;;;;;3.95;2.30;;;2.40;99.90;;;;;;4150208;28;20053;-82
2023/01/28 04:10:08;;;;;;;3.78;2.28;;;2.40;99.90;;;;;;4166717;28;20103;-82
2023/01/28 04:12:09;;;;;;;5.05;2.25;;;2.40;99.90;;;;;;4166106;28;20077;-82
2023/01/28 04:14:10;;;;;;;3.78;2.53;;;3.10;99.90;;;;;;4149941;28;20465;-81
2023/01/28 04:16:12;;;;;;;4.47;2.63;;;2.50;99.90;;;;;;4167223;28;20080;-82
2023/01/28 04:18:13;;;;;;;3.65;2.15;;;2.30;99.90;;;;;;4167713;28;20128;-82
2023/01/28 04:20:15;;;;;;;3.97;2.50;;;2.30;99.90;;;;;;4167723;28;20056;-82
2023/01/28 04:22:16;;;;;;;4.05;2.50;;;2.30;99.90;;;;;;4167761;28;20111;-82
2023/01/28 04:24:17;;;;;;;3.88;2.13;;;2.30;99.90;;;;;;4167536;28;20050;-82
2023/01/28 04:26:20;;;;;;;4.78;2.15;;;3.60;99.90;;;;;;4166398;28;20049;-82
2023/01/28 04:28:21;;;;;;;4.25;2.45;;;2.30;99.90;;;;;;4166839;28;20529;-82
2023/01/28 04:30:23;;;;;;;4.25;2.42;;;2.30;99.90;;;;;;4167197;28;20098;-82
2023/01/28 04:32:23;;;;;;;3.80;2.58;;;2.30;99.90;;;;;;4167763;28;20478;-82
2023/01/28 04:34:25;;;;;;;7.35;2.67;;;2.30;99.90;;;;;;4149751;28;20084;-82
2023/01/28 04:36:27;;;;;;;4.60;2.30;;;3.00;99.90;;;;;;4150117;28;20050;-82
2023/01/28 04:38:27;;;;;;;5.88;2.58;;;2.80;99.90;;;;;;4167656;28;20048;-82
2023/01/28 04:40:29;;;;;;;5.63;2.72;;;2.60;99.90;;;;;;4149933;28;20046;-82
2023/01/28 04:42:31;;;;;;;3.15;2.28;;;2.30;99.90;;;;;;4166819;28;20410;-82
2023/01/28 04:44:32;;;;;;;4.07;2.35;;;2.60;99.90;;;;;;4149862;28;20050;-81
2023/01/28 04:46:34;;;;;;;4.63;2.63;;;2.30;99.90;;;;;;4149757;28;20511;-82
2023/01/28 04:48:37;;;;;;;4.38;2.40;;;2.90;99.90;;;;;;4149761;28;20056;-82
2023/01/28 04:50:39;;;;;;;3.13;2.15;;;2.30;99.90;;;;;;4150211;28;20077;-82
2023/01/28 04:52:41;;;;;;;3.58;2.42;;;2.20;99.90;;;;;;4150095;28;20502;-82
2023/01/28 04:54:42;;;;;;;3.88;2.30;;;2.80;99.90;;;;;;4166123;28;20068;-82
2023/01/28 04:56:44;;;;;;;3.53;2.30;;;2.20;99.90;;;;;;4167537;28;20128;-82
2023/01/28 04:58:45;;;;;;;3.38;2.33;;;2.20;99.90;;;;;;4150054;28;20061;-82
2023/01/28 05:00:57;;;;;;;3.22;2.22;;;2.20;99.90;;;;;;4166386;28;20045;-82
2023/01/28 05:02:58;;;;;;;4.32;2.42;;;2.20;99.90;;;;;;4150267;28;20452;-82
2023/01/28 05:05:03;;;;;;;3.95;2.15;;;2.60;99.90;;;;;;4149536;28;20184;-82
2023/01/28 05:07:04;;;;;;;5.25;2.15;;;2.90;99.90;;;;;;4167786;28;20651;-82
2023/01/28 05:09:05;;;;;;;4.78;2.22;;;2.20;99.90;;;;;;4150186;28;20050;-82
2023/01/28 05:11:12;;;;;;;3.42;2.22;;;2.20;99.90;;;;;;4166053;28;20049;-82
2023/01/28 05:13:13;;;;;;;4.43;2.53;;;2.20;99.90;;;;;;4166194;28;20441;-82
2023/01/28 05:15:16;;;;;;;3.58;2.00;;;2.20;99.90;;;;;;4166370;28;20056;-82
2023/01/28 05:17:17;;;;;;;7.07;2.30;;;2.50;99.90;;;;;;4149040;28;20053;-82
2023/01/28 05:19:19;;;;;;;4.82;2.78;;;2.20;99.90;;;;;;4149881;28;20054;-82
2023/01/28 05:21:20;;;;;;;4.93;2.15;;;2.80;99.90;;;;;;4149523;28;20057;-82
2023/01/28 05:23:21;;;;;;;4.15;2.75;;;2.20;99.90;;;;;;4167403;28;20418;-82
2023/01/28 05:25:21;;;;;;;4.18;2.55;;;2.20;99.90;;;;;;4166465;28;20049;-82
2023/01/28 05:27:22;;;;;;;4.70;2.55;;;3.00;99.90;;;;;;4166935;28;20042;-82
2023/01/28 05:29:23;;;;;;;4.80;2.30;;;2.10;99.90;;;;;;4166152;28;20114;-82
2023/01/28 05:31:24;;;;;;;5.20;2.47;;;2.40;99.90;;;;;;4167096;28;20525;-82
2023/01/28 05:33:24;;;;;;;6.97;3.45;;;2.10;99.90;;;;;;4167535;28;20045;-82
2023/01/28 05:35:25;;;;;;;4.22;2.60;;;2.10;99.90;;;;;;4166943;28;20055;-81
2023/01/28 05:37:26;;;;;;;4.28;2.58;;;2.90;99.90;;;;;;4149873;28;20587;-81
2023/01/28 05:39:27;;;;;;;7.25;2.83;;;3.50;99.90;;;;;;4149696;28;20050;-81
2023/01/28 05:41:30;;;;;;;7.32;2.75;;;2.40;99.90;;;;;;4166740;28;20063;-82
2023/01/28 05:43:31;;;;;;;6.10;3.10;;;2.10;99.90;;;;;;4169815;28;20124;-81
2023/01/28 05:45:31;;;;;;;4.85;2.38;;;2.10;99.90;;;;;;4149327;28;20049;-81
2023/01/28 05:47:33;;;;;;;4.38;3.10;;;2.30;99.90;;;;;;4165629;28;20087;-81
2023/01/28 05:49:34;;;;;;;5.50;3.65;;;2.10;99.90;;;;;;4166346;28;20045;-82
2023/01/28 05:51:34;;;;;;;4.90;2.60;;;2.80;99.90;;;;;;4166994;28;20044;-81
2023/01/28 05:53:36;;;;;;;5.20;2.53;;;2.10;99.90;;;;;;4166427;28;20572;-81
2023/01/28 05:55:37;;;;;;;5.03;2.63;;;2.10;99.90;;;;;;4165431;28;20057;-81
2023/01/28 05:57:38;;;;;;;4.38;2.80;;;2.10;99.90;;;;;;4166893;28;20456;-81
2023/01/28 05:59:40;;;;;;;4.13;2.70;;;2.70;99.90;;;;;;4166571;28;20484;-81
2023/01/28 06:01:42;;;;;;;6.40;2.63;;;2.10;99.90;;;;;;4149703;28;20050;-81
2023/01/28 06:03:43;;;;;;;4.63;2.53;;;2.10;99.90;;;;;;4165603;28;20080;-81
2023/01/28 06:05:47;;;;;;;5.30;3.53;;;2.30;99.90;;;;;;4165239;28;20046;-81
2023/01/28 06:07:48;;;;;;;5.40;2.92;;;2.10;99.90;;;;;;4165021;28;20077;-81
2023/01/28 06:09:49;;;;;;;4.15;2.80;;;3.20;99.90;;;;;;4166506;28;20037;-81
2023/01/28 06:11:49;;;;;;;6.28;3.53;;;2.10;99.90;;;;;;4166126;28;20132;-81
2023/01/28 06:13:50;;;;;;;5.28;3.05;;;2.50;99.90;;;;;;4165991;28;20128;-82
2023/01/28 06:15:52;;;;;;;6.63;3.15;;;2.00;99.90;;;;;;4166734;28;20042;-82
2023/01/28 06:17:53;;;;;;;5.22;2.67;;;2.50;99.90;;;;;;4167353;28;20042;-82
2023/01/28 06:19:54;;;;;;;4.95;2.97;;;2.00;99.90;;;;;;4167168;28;20052;-82
2023/01/28 06:21:56;;;;;;;4.10;2.78;;;3.10;99.90;;;;;;4149950;28;20506;-82
2023/01/28 06:23:58;;;;;;;6.47;3.40;;;2.00;99.90;;;;;;4165947;28;20061;-82
2023/01/28 06:25:59;;;;;;;5.85;3.63;;;2.60;99.90;;;;;;4149941;28;20440;-82
2023/01/28 06:28:00;;;;;;;5.13;3.33;;;2.00;99.90;;;;;;4166324;28;20076;-82
2023/01/28 06:30:01;;;;;;;6.72;3.55;;;2.00;99.90;;;;;;4165708;28;20050;-82
2023/01/28 06:32:03;;;;;;;5.95;3.60;;;2.10;99.90;;;;;;4166295;28;20045;-81
2023/01/28 06:34:04;;;;;;;5.47;3.65;;;2.00;99.90;;;;;;4169677;28;20120;-81
2023/01/28 06:36:06;;;;;;;6.50;3.42;;;2.00;99.90;;;;;;4170570;28;20049;-81
2023/01/28 06:38:07;;;;;;;6.82;3.30;;;2.00;99.90;;;;;;4169421;28;20049;-81
2023/01/28 06:40:08;;;;;;;6.05;3.35;;;2.00;99.90;;;;;;4152743;28;20080;-82
2023/01/28 06:42:09;;;;;;;6.82;3.50;;;2.00;99.90;;;;;;4169279;28;20092;-81
2023/01/28 06:44:11;;;;;;;7.28;3.70;;;2.90;99.90;;;;;;4169665;28;20045;-81
2023/01/28 06:46:12;;;;;;;7.03;3.80;;;1.90;99.90;;;;;;4170316;28;20116;-81
2023/01/28 06:48:13;;;;;;;6.22;3.65;;;2.00;99.90;;;;;;4168973;28;20060;-82
2023/01/28 06:50:15;;;;;;;6.57;4.10;;;1.90;99.90;;;;;;4152370;28;20454;-81
2023/01/28 06:52:17;;;;;;;6.40;3.65;;;1.90;99.90;;;;;;4169779;28;20057;-82
2023/01/28 06:54:18;;;;;;;5.50;3.92;;;1.90;99.90;;;;;;4170236;28;20464;-81
2023/01/28 06:56:20;;;;;;;7.85;4.70;;;1.90;99.90;;;;;;4169951;28;20056;-81
2023/01/28 06:58:22;;;;;;;6.43;4.07;;;1.90;99.90;;;;;;4152269;28;20112;-82
2023/01/28 07:00:27;;;;;;;7.95;4.25;;;1.90;99.90;;;;;;4153048;28;20042;-81
2023/01/28 07:02:28;;;;;;;7.15;4.40;;;2.80;99.90;;;;;;4168561;28;20433;-81
2023/01/28 07:04:30;;;;;;;10.00;4.97;;;2.10;99.90;;;;;;4152692;28;20050;-81
2023/01/28 07:06:32;;;;;;;7.03;4.22;;;2.70;99.90;;;;;;4169162;28;20046;-81
2023/01/28 07:08:34;;;;;;;10.80;5.90;;;2.30;99.90;;;;;;4152633;28;20293;-82
2023/01/28 07:10:36;;;;;;;6.53;4.03;;;1.90;99.90;;;;;;4152486;28;20042;-82
2023/01/28 07:12:38;;;;;;;8.90;4.65;;;2.60;99.90;;;;;;4152390;28;20096;-83
2023/01/28 07:14:39;;;;;;;8.30;4.32;;;1.80;99.90;;;;;;4152389;28;20061;-82
2023/01/28 07:16:40;;;;;;;7.43;4.20;;;1.80;99.90;;;;;;4152169;28;20100;-82
2023/01/28 07:18:42;;;;;;;6.57;3.63;;;2.70;99.90;;;;;;4173246;28;20084;-82
2023/01/28 07:20:42;;;;;;;5.97;3.75;;;2.30;99.90;;;;;;4185957;28;20053;-82
2023/01/28 07:22:44;;;;;;;6.95;4.03;;;2.60;99.90;;;;;;4168789;28;20050;-82
2023/01/28 07:24:46;;;;;;;6.93;3.92;;;2.50;99.90;;;;;;4166734;28;20120;-82
2023/01/28 07:26:48;;;;;;;6.20;4.00;;;2.40;99.90;;;;;;4170007;28;20541;-81
2023/01/28 07:28:49;;;;;;;6.45;3.83;;;2.40;99.90;;;;;;4169706;28;20041;-82
2023/01/28 07:30:51;;;;;;;6.78;3.95;;;3.10;99.90;;;;;;4179808;28;20100;-82
2023/01/28 07:32:55;;;;;;;7.85;4.50;;;1.50;99.90;;;;;;4185294;28;20096;-82
2023/01/28 07:34:56;;;;;;;6.88;4.28;;;1.50;99.90;;;;;;4186327;28;20048;-82
2023/01/28 07:36:58;;;;;;;13.70;4.28;;;1.50;99.90;;;;;;4185878;28;20153;-82
2023/01/28 07:38:58;;;;;;;7.55;4.40;;;1.50;99.90;;;;;;4187495;28;20536;-82
2023/01/28 07:41:00;;;;;;;6.03;3.45;;;1.50;99.90;;;;;;4169452;28;20049;-81
2023/01/28 07:43:02;;;;;;;6.55;3.47;;;1.50;99.90;;;;;;4185328;28;20052;-82
2023/01/28 07:45:05;;;;;;;10.20;4.57;;;1.40;99.90;;;;;;4185276;28;20488;-82
2023/01/28 07:47:06;;;;;;;5.85;3.47;;;1.40;99.90;;;;;;4170194;28;20111;-82
2023/01/28 07:49:07;;;;;;;6.22;4.05;;;2.50;99.90;;;;;;4187049;28;20071;-82
2023/01/28 07:51:08;;;;;;;7.07;4.20;;;2.20;99.90;;;;;;4185570;28;20521;-82
2023/01/28 07:53:11;;;;;;;6.82;4.13;;;1.40;99.90;;;;;;4169378;28;20041;-80
2023/01/28 07:55:15;;;;;;;7.35;3.97;;;1.30;99.90;;;;;;4187327;28;20045;-81
2023/01/28 07:57:22;;;;;;;6.97;4.03;;;1.60;99.90;;;;;;4187938;28;20053;-81
2023/01/28 07:59:22;;;;;;;8.18;4.28;;;1.40;99.90;;;;;;4187506;28;20048;-82
2023/01/28 08:01:25;;;;;;;7.72;4.18;;;1.40;99.90;;;;;;4169517;28;20045;-81
2023/01/28 08:03:27;;;;;;;6.13;3.75;;;1.50;99.90;;;;;;4168479;28;20049;-81
2023/01/28 08:05:44;;;;;;;8.88;4.28;;;1.60;99.90;;;;;;4187124;28;20436;-81
2023/01/28 08:07:47;;;;;;;6.45;3.75;;;1.70;99.90;;;;;;4185093;28;20053;-81
2023/01/28 08:09:48;;;;;;;5.70;3.85;;;1.60;99.90;;;;;;4185207;28;20048;-82
2023/01/28 08:11:50;;;;;;;6.70;3.80;;;1.90;99.90;;;;;;4186212;28;20045;-81
2023/01/28 08:13:51;;;;;;;7.22;4.15;;;1.60;99.90;;;;;;4185300;28;20072;-82
2023/01/28 08:15:55;;;;;;;6.72;3.85;;;2.50;99.90;;;;;;4186340;28;20128;-81
2023/01/28 08:17:57;;;;;;;5.88;3.30;;;1.80;99.90;;;;;;4186832;28;20051;-83
2023/01/28 08:20:04;;;;;;;5.93;3.72;;;1.50;99.90;;;;;;4170776;28;20481;-81
2023/01/28 08:22:07;;;;;;;8.65;4.18;;;1.50;99.90;;;;;;4187649;28;20433;-81
2023/01/28 08:24:08;;;;;;;5.35;3.63;;;1.60;99.90;;;;;;4201513;28;20057;-82
2023/01/28 08:26:08;;;;;;;9.18;4.10;;;1.60;99.90;;;;;;4182211;28;20041;-83
2023/01/28 08:28:11;;;;;;;5.88;3.75;;;2.40;99.90;;;;;;4167653;28;20055;-82
2023/01/28 08:30:12;;;;;;;6.18;3.72;;;1.80;99.90;;;;;;4163553;28;20046;-81
2023/01/28 08:32:13;;;;;;;6.93;4.18;;;1.80;99.90;;;;;;4174128;28;20071;-83
2023/01/28 08:34:14;;;;;;;9.60;3.80;;;1.80;99.90;;;;;;4167118;28;20152;-82
2023/01/28 08:36:15;;;;;;;8.43;3.85;;;1.90;99.90;;;;;;4176449;28;20044;-83
2023/01/28 08:38:16;;;;;;;6.60;3.72;;;1.90;99.90;;;;;;4168480;28;20057;-84
2023/01/28 08:40:19;;;;;;;5.38;3.20;;;1.90;99.90;;;;;;4168204;28;20054;-83
2023/01/28 08:42:22;;;;;;;7.00;3.28;;;1.90;99.90;;;;;;4167055;28;20060;-82
2023/01/28 08:44:22;;;;;;;6.55;3.53;;;1.90;99.90;;;;;;4168408;28;20045;-82
2023/01/28 08:46:23;;;;;;;6.72;3.70;;;2.10;99.90;;;;;;4150671;28;20534;-82
2023/01/28 08:48:24;;;;;;;7.75;4.00;;;2.80;99.90;;;;;;4150990;28;20129;-81
2023/01/28 08:50:28;;;;;;;5.40;3.22;;;2.30;99.90;;;;;;4149870;28;20097;-81
2023/01/28 08:52:29;;;;;;;7.70;3.67;;;2.40;99.90;;;;;;4166427;28;20053;-81
2023/01/28 08:54:32;;;;;;;7.18;3.85;;;2.70;99.90;;;;;;4166810;28;20410;-82
2023/01/28 08:56:32;;;;;;;4.97;3.28;;;3.20;99.90;;;;;;4164324;28;20084;-82
2023/01/28 08:58:35;;;;;;;5.85;3.17;;;3.70;99.90;;;;;;4164863;28;20068;-81
2023/01/28 09:00:36;;;;;;;6.30;3.53;;;4.40;99.90;;;;;;4165919;28;20045;-82
2023/01/28 09:02:37;;;;;;;5.65;3.33;;;4.30;99.90;;;;;;4165836;28;20103;-82
2023/01/28 09:04:38;;;;;;;4.93;3.53;;;4.60;99.90;;;;;;4165998;28;20417;-82
2023/01/28 09:06:40;;;;;;;5.93;3.40;;;4.70;99.90;;;;;;4165646;28;20041;-82
2023/01/28 09:08:40;;;;;;;5.30;3.42;;;5.10;99.90;;;;;;4164218;28;20068;-82
2023/01/28 09:10:41;;;;;;;4.88;3.15;;;5.20;99.90;;;;;;4163850;28;20054;-82
2023/01/28 09:12:43;;;;;;;5.13;2.80;;;5.20;99.90;;;;;;4163764;28;20052;-81
2023/01/28 09:14:44;;;;;;;4.30;3.00;;;5.00;99.90;;;;;;4164172;28;20053;-82
2023/01/28 09:16:45;;;;;;;4.70;2.90;;;5.20;99.90;;;;;;4164219;28;20049;-82
2023/01/28 09:18:47;;;;;;;5.30;3.15;;;5.60;99.90;;;;;;4163807;28;20049;-82
2023/01/28 09:20:47;;;;;;;5.68;2.80;;;6.10;99.90;;;;;;4165704;28;20464;-82
2023/01/28 09:22:48;;;;;;;4.93;2.90;;;6.40;99.90;;;;;;4163522;28;20132;-83
2023/01/28 09:24:49;;;;;;;5.30;2.70;;;7.00;99.90;;;;;;4164008;28;20151;-83
2023/01/28 09:26:49;;;;;;;3.60;2.50;;;7.70;99.90;;;;;;4163499;28;20091;-83
2023/01/28 09:28:51;;;;;;;4.60;3.00;;;8.00;99.90;;;;;;4147086;28;20046;-83
2023/01/28 09:30:52;;;;;;;5.00;2.75;;;8.60;99.90;;;;;;4163032;28;20501;-83
2023/01/28 09:32:54;;;;;;;3.75;2.63;;;9.10;99.90;;;;;;4163275;28;20132;-82
2023/01/28 09:34:54;;;;;;;3.38;2.38;;;9.90;99.90;;;;;;4164572;28;20095;-83
2023/01/28 09:36:56;;;;;;;4.40;2.70;;;10.10;99.90;;;;;;4164448;28;20103;-81
2023/01/28 09:38:56;;;;;;;3.60;2.80;;;9.80;99.90;;;;;;4163156;28;20051;-83
2023/01/28 09:40:58;;;;;;;5.40;3.00;;;9.00;99.90;;;;;;4180868;28;20508;-82
2023/01/28 09:43:18;;;;;;;3.40;2.30;;;8.30;99.90;;;;;;4163070;28;20587;-82
2023/01/28 09:45:41;;;;;;;3.60;2.60;;;8.30;99.90;;;;;;4180789;28;20081;-82
2023/01/28 09:47:58;;;;;;;4.10;2.35;;;8.60;99.90;;;;;;4167322;28;20087;-82
2023/01/28 09:50:05;;;;;;;4.15;2.83;;;9.30;99.90;;;;;;4166103;28;20124;-82
2023/01/28 09:52:13;;;;;;;8.57;3.60;;;9.00;99.90;;;;;;4165112;28;20398;-82
2023/01/28 09:54:19;;;;;;;5.95;2.60;;;8.20;99.90;;;;;;4165033;28;20053;-82
2023/01/28 09:56:49;;;;;;;4.57;2.90;;;8.20;99.90;;;;;;4166081;28;20064;-82
2023/01/28 09:58:50;;;;;;;4.28;2.65;;;6.90;99.90;;;;;;4168487;28;20520;-82
2023/01/28 10:01:14;;;;;;;4.38;2.70;;;6.70;99.90;;;;;;4182727;28;20041;-82
2023/01/28 10:03:44;;;;;;;4.68;2.78;;;7.30;99.90;;;;;;4181239;28;20053;-82
2023/01/28 10:06:15;;;;;;;4.63;2.88;;;8.10;99.90;;;;;;4179424;28;20672;-82
2023/01/28 10:08:36;;;;;;;5.05;2.53;;;7.50;99.90;;;;;;4174673;28;20085;-82
2023/01/28 10:11:04;;;;;;;4.22;2.67;;;6.80;99.90;;;;;;4179400;28;20100;-82
2023/01/28 10:13:23;;;;;;;4.82;3.15;;;6.40;99.90;;;;;;4176042;28;20053;-82
2023/01/28 10:15:39;;;;;;;;;;;6.40;99.90;;;;;;4180893;28;20045;-82
2023/01/28 10:17:44;;;;;;;4.82;2.72;;;6.60;99.90;;;;;;4180422;28;20013;-84
2023/01/28 10:19:58;;;;;;;5.72;3.22;;;6.80;99.90;;;;;;4180309;28;20433;-81
2023/01/28 10:22:09;;;;;;;8.50;3.08;;;6.90;99.90;;;;;;4162812;28;20085;-82
2023/01/28 10:24:39;;;;;;;4.43;2.80;;;6.90;99.90;;;;;;4180616;28;20084;-82
2023/01/28 10:26:42;;;;;;;4.28;2.85;;;7.20;99.90;;;;;;4179687;28;20080;-82
2023/01/28 10:28:43;;;;;;;6.75;2.80;;;7.50;99.90;;;;;;4180030;28;20051;-82
2023/01/28 10:30:46;;;;;;;6.50;2.88;;;7.70;99.90;;;;;;4180113;28;20049;-82
2023/01/28 10:33:02;;;;;;;5.72;3.03;;;7.90;99.90;;;;;;4179137;28;20049;-81
2023/01/28 10:35:02;;;;;;;5.57;2.97;;;7.90;99.90;;;;;;4179987;28;20041;-81
2023/01/28 10:37:04;;;;;;;3.85;2.67;;;7.80;99.90;;;;;;4179704;28;20087;-82
2023/01/28 10:39:06;;;;;;;4.85;2.60;;;7.60;99.90;;;;;;4180535;28;20052;-81
2023/01/28 10:41:11;;;;;;;4.40;2.60;;;7.40;99.90;;;;;;4180874;28;20048;-82
2023/01/28 10:43:12;;;;;;;4.07;2.50;;;7.20;99.90;;;;;;4181408;28;20066;-82
2023/01/28 10:45:25;;;;;;;5.53;2.95;;;7.10;99.90;;;;;;4180144;28;20044;-82
2023/01/28 10:47:42;;;;;;;4.25;2.63;;;6.80;99.90;;;;;;4180600;28;20060;-82
2023/01/28 10:49:50;;;;;;;7.38;2.90;;;6.70;99.90;;;;;;4182084;28;20071;-83
2023/01/28 10:51:58;;;;;;;5.00;3.00;;;6.70;99.90;;;;;;4186990;28;20096;-82
2023/01/28 10:54:00;;;;;;;5.90;2.60;;;6.70;99.90;;;;;;4191067;28;20056;-82
2023/01/28 10:56:04;;;;;;;4.15;2.42;;;6.80;99.90;;;;;;4193070;28;20056;-82
2023/01/28 10:58:19;;;;;;;4.03;2.53;;;6.80;99.90;;;;;;4192209;28;20057;-81
2023/01/28 11:00:22;;;;;;;6.50;3.33;;;7.00;99.90;;;;;;4184705;28;20122;-82
2023/01/28 11:02:34;;;;;;;5.03;2.65;;;7.20;99.90;;;;;;4179511;28;20367;-81
2023/01/28 11:04:37;;;;;;;4.78;2.85;;;7.50;99.90;;;;;;4180445;28;20432;-82
2023/01/28 11:06:38;;;;;;;5.32;2.95;;;7.50;99.90;;;;;;4180428;28;20041;-81
2023/01/28 11:08:44;;;;;;;4.45;2.40;;;7.50;99.90;;;;;;4180571;28;20053;-81
2023/01/28 11:10:46;;;;;;;5.97;2.72;;;7.50;99.90;;;;;;4178066;28;20045;-80
2023/01/28 11:12:57;;;;;;;5.85;3.28;;;7.30;99.90;;;;;;4179713;28;20045;-80
2023/01/28 11:15:05;;;;;;;7.72;2.88;;;7.20;99.90;;;;;;4178951;28;20560;-81
2023/01/28 11:17:16;;;;;;;4.53;2.95;;;7.10;99.90;;;;;;4179110;28;20053;-81
2023/01/28 11:19:19;;;;;;;5.72;3.08;;;7.00;99.90;;;;;;4180532;28;20060;-81
2023/01/28 11:21:26;;;;;;;6.15;2.80;;;6.80;99.90;;;;;;4183432;28;20541;-80
2023/01/28 11:23:30;;;;;;;4.20;2.50;;;6.80;99.90;;;;;;4183360;28;20100;-80
2023/01/28 11:25:36;;;;;;;5.38;2.63;;;6.60;99.90;;;;;;4182884;28;20068;-81
2023/01/28 11:27:37;;;;;;;5.57;2.38;;;6.50;99.90;;;;;;4165641;28;20494;-82
2023/01/28 11:29:39;;;;;;;6.07;2.80;;;6.40;99.90;;;;;;4183128;28;20080;-82